createdAt,value
2022-11-20T00:01:07.572Z,94613.38
2022-11-20T00:03:35.671Z,94622.31
2022-11-20T00:06:05.454Z,94622.13
2022-11-20T00:08:33.403Z,94622.41
2022-11-20T00:11:05.354Z,94623.88
2022-11-20T00:13:33.541Z,94622.50
2022-11-20T00:16:02.767Z,94622.75
2022-11-20T00:18:30.634Z,94623.44
2022-11-20T00:21:04.892Z,94630.13
2022-11-20T00:23:32.852Z,94621.53
2022-11-20T00:26:03.897Z,94619.69
2022-11-20T00:28:31.675Z,94628.94
2022-11-20T00:31:04.524Z,94622.38
2022-11-20T00:33:32.628Z,94626.69
2022-11-20T00:36:05.893Z,94625.28
2022-11-20T00:38:34.035Z,94628.97
2022-11-20T00:41:03.016Z,94626.16
2022-11-20T00:43:31.010Z,94634.94
2022-11-20T00:46:00.076Z,94624.25
2022-11-20T00:48:28.579Z,94636.22
2022-11-20T00:50:56.756Z,94648.50
2022-11-20T00:53:26.457Z,94640.03
2022-11-20T00:55:58.666Z,94649.59
2022-11-20T00:58:30.487Z,94654.53
2022-11-20T01:01:02.977Z,94654.09
2022-11-20T01:03:33.902Z,94649.75
2022-11-20T01:06:03.454Z,94656.84
2022-11-20T01:08:37.538Z,94652.81
2022-11-20T01:11:08.079Z,94658.34
2022-11-20T01:13:39.838Z,94660.28
2022-11-20T01:16:10.313Z,94651.94
2022-11-20T01:18:39.471Z,94650.94
2022-11-20T01:21:09.257Z,94648.31
2022-11-20T01:23:40.797Z,94658.28
2022-11-20T01:26:11.436Z,94654.34
2022-11-20T01:28:39.950Z,94656.75
2022-11-20T01:31:14.051Z,94656.03
2022-11-20T01:33:43.106Z,94656.53
2022-11-20T01:36:12.086Z,94656.63
2022-11-20T01:38:43.001Z,94662.94
2022-11-20T01:41:11.668Z,94671.75
2022-11-20T01:43:38.566Z,94671.56
2022-11-20T01:46:19.170Z,94668.06
2022-11-20T01:48:54.278Z,94666.19
2022-11-20T01:51:29.594Z,94672.41
2022-11-20T01:54:03.007Z,94673.03
2022-11-20T01:56:35.029Z,94669.63
2022-11-20T01:59:06.289Z,94670.06
2022-11-20T02:01:34.219Z,94660.47
2022-11-20T02:04:03.758Z,94659.50
2022-11-20T02:06:37.267Z,94669.75
2022-11-20T02:09:06.450Z,94660.94
2022-11-20T02:11:34.264Z,94669.56
2022-11-20T02:14:01.540Z,94667.59
2022-11-20T02:16:32.657Z,94667.16
2022-11-20T02:19:05.958Z,94672.53
2022-11-20T02:21:39.218Z,94672.69
2022-11-20T02:24:11.806Z,94668.06
2022-11-20T02:26:46.037Z,94672.63
2022-11-20T02:29:13.919Z,94682.81
2022-11-20T02:31:44.451Z,94666.53
2022-11-20T02:34:12.427Z,94665.94
2022-11-20T02:36:45.708Z,94678.88
2022-11-20T02:39:17.881Z,94676.16
2022-11-20T02:41:45.834Z,94670.63
2022-11-20T02:44:14.086Z,94668.88
2022-11-20T02:46:42.273Z,94683.06
2022-11-20T02:49:10.459Z,94674.38
2022-11-20T02:51:38.422Z,94652.81
2022-11-20T02:54:06.500Z,94676.31
2022-11-20T02:56:36.007Z,94664.84
2022-11-20T02:59:03.986Z,94657.91
2022-11-20T03:01:32.105Z,94677.75
2022-11-20T03:04:00.038Z,94664.69
2022-11-20T03:06:28.058Z,94671.06
2022-11-20T03:08:56.220Z,94650.25
2022-11-20T03:11:24.198Z,94666.69
2022-11-20T03:13:53.590Z,94676.91
2022-11-20T03:16:23.871Z,94674.72
2022-11-20T03:18:54.002Z,94663.16
2022-11-20T03:21:25.217Z,94669.63
2022-11-20T03:23:53.076Z,94662.91
2022-11-20T03:26:22.795Z,94670.28
2022-11-20T03:28:54.565Z,94663.44
2022-11-20T03:31:24.970Z,94660.41
2022-11-20T03:33:53.063Z,94662.50
2022-11-20T03:36:22.157Z,94662.09
2022-11-20T03:38:50.702Z,94663.22
2022-11-20T03:41:20.538Z,94665.97
2022-11-20T03:43:50.903Z,94670.81
2022-11-20T03:46:20.433Z,94668.88
2022-11-20T03:48:51.575Z,94667.72
2022-11-20T03:51:21.993Z,94667.19
2022-11-20T03:53:51.199Z,94668.59
2022-11-20T03:56:21.181Z,94668.59
2022-11-20T03:58:49.091Z,94668.16
2022-11-20T04:01:19.586Z,94675.91
2022-11-20T04:03:49.255Z,94673.97
2022-11-20T04:06:20.575Z,94681.66
2022-11-20T04:08:53.633Z,94677.47
2022-11-20T04:11:26.471Z,94678.00
2022-11-20T04:13:56.166Z,94670.78
2022-11-20T04:16:25.281Z,94673.09
2022-11-20T04:18:56.220Z,94665.69
2022-11-20T04:21:24.492Z,94670.25
2022-11-20T04:23:53.814Z,94669.00
2022-11-20T04:26:23.098Z,94664.31
2022-11-20T04:28:51.316Z,94670.66
2022-11-20T04:31:20.799Z,94666.34
2022-11-20T04:33:48.871Z,94667.22
2022-11-20T04:36:19.913Z,94664.00
2022-11-20T04:38:53.831Z,94667.31
2022-11-20T04:41:26.020Z,94667.25
2022-11-20T04:43:59.928Z,94674.72
2022-11-20T04:46:28.967Z,94673.53
2022-11-20T04:48:57.213Z,94681.00
2022-11-20T04:51:26.662Z,94689.53
2022-11-20T04:53:54.522Z,94668.84
2022-11-20T04:56:22.382Z,94677.16
2022-11-20T04:58:50.239Z,94670.72
2022-11-20T05:01:20.237Z,94675.69
2022-11-20T05:03:48.342Z,94678.84
2022-11-20T05:06:19.936Z,94670.94
2022-11-20T05:08:49.306Z,94661.19
2022-11-20T05:11:19.016Z,94675.75
2022-11-20T05:13:47.074Z,94672.31
2022-11-20T05:16:17.112Z,94665.19
2022-11-20T05:18:45.512Z,94670.75
2022-11-20T05:21:14.705Z,94676.78
2022-11-20T05:23:43.099Z,94678.19
2022-11-20T05:26:16.348Z,94679.63
2022-11-20T05:28:44.376Z,94678.94
2022-11-20T05:31:14.557Z,94676.16
2022-11-20T05:33:44.251Z,94668.06
2022-11-20T05:36:13.339Z,94676.84
2022-11-20T05:38:41.606Z,94683.69
2022-11-20T05:41:12.975Z,94681.94
2022-11-20T05:43:42.636Z,94688.84
2022-11-20T05:46:12.759Z,94680.09
2022-11-20T05:48:42.095Z,94676.91
2022-11-20T05:51:12.913Z,94687.50
2022-11-20T05:53:45.270Z,94679.19
2022-11-20T05:56:19.385Z,94689.34
2022-11-20T05:58:47.921Z,94689.41
2022-11-20T06:01:18.152Z,94687.97
2022-11-20T06:03:48.514Z,94684.13
2022-11-20T06:06:18.691Z,94685.84
2022-11-20T06:08:47.349Z,94685.94
2022-11-20T06:11:17.893Z,94683.50
2022-11-20T06:13:46.452Z,94677.25
2022-11-20T06:16:16.690Z,94695.78
2022-11-20T06:18:47.449Z,94685.97
2022-11-20T06:21:17.411Z,94689.03
2022-11-20T06:23:46.244Z,94689.97
2022-11-20T06:26:16.250Z,94687.28
2022-11-20T06:28:46.921Z,94682.66
2022-11-20T06:31:16.451Z,94693.50
2022-11-20T06:33:45.464Z,94711.22
2022-11-20T06:36:14.681Z,94699.31
2022-11-20T06:38:42.701Z,94693.97
2022-11-20T06:41:14.953Z,94706.66
2022-11-20T06:43:43.127Z,94705.78
2022-11-20T06:46:13.610Z,94713.06
2022-11-20T06:48:41.988Z,94703.94
2022-11-20T06:51:10.268Z,94715.34
2022-11-20T06:53:39.084Z,94710.41
2022-11-20T06:56:07.828Z,94718.50
2022-11-20T06:58:36.997Z,94720.78
2022-11-20T07:01:07.124Z,94729.50
2022-11-20T07:03:36.434Z,94728.28
2022-11-20T07:06:05.168Z,94723.78
2022-11-20T07:08:33.600Z,94730.63
2022-11-20T07:11:03.194Z,94731.41
2022-11-20T07:13:31.509Z,94727.66
2022-11-20T07:16:02.983Z,94735.31
2022-11-20T07:18:30.891Z,94733.50
2022-11-20T07:21:02.694Z,94731.41
2022-11-20T07:23:30.503Z,94735.34
2022-11-20T07:25:58.312Z,94738.53
2022-11-20T07:28:26.246Z,94732.81
2022-11-20T07:30:55.106Z,94729.50
2022-11-20T07:33:25.312Z,94734.78
2022-11-20T07:35:53.291Z,94731.94
2022-11-20T07:38:22.510Z,94726.66
2022-11-20T07:40:50.370Z,94725.47
2022-11-20T07:43:18.240Z,94725.09
2022-11-20T07:45:46.479Z,94724.22
2022-11-20T07:48:14.756Z,94708.50
2022-11-20T07:50:42.812Z,94718.16
2022-11-20T07:53:10.967Z,94739.03
2022-11-20T07:55:40.344Z,94719.81
2022-11-20T07:58:08.198Z,94735.75
2022-11-20T08:00:36.089Z,94745.94
2022-11-20T08:03:05.748Z,94746.38
2022-11-20T08:05:33.963Z,94747.97
2022-11-20T08:08:01.880Z,94742.06
2022-11-20T08:10:29.732Z,94749.50
2022-11-20T08:13:16.752Z,94748.03
2022-11-20T08:15:50.978Z,94746.22
2022-11-20T08:18:34.649Z,94750.44
2022-11-20T08:21:05.640Z,94746.94
2022-11-20T08:23:33.880Z,94752.44
2022-11-20T08:26:01.720Z,94754.75
2022-11-20T08:28:31.048Z,94765.41
2022-11-20T08:31:03.695Z,94749.38
2022-11-20T08:33:33.597Z,94765.28
2022-11-20T08:36:02.508Z,94746.50
2022-11-20T08:38:30.882Z,94756.16
2022-11-20T08:41:17.055Z,94750.72
2022-11-20T08:43:46.505Z,94750.97
2022-11-20T08:46:14.640Z,94758.56
2022-11-20T08:48:42.577Z,94735.66
2022-11-20T08:51:10.495Z,94742.84
2022-11-20T08:53:38.338Z,94746.66
2022-11-20T08:56:07.162Z,94742.31
2022-11-20T08:58:54.997Z,94737.69
2022-11-20T09:01:25.441Z,94747.19
2022-11-20T09:03:53.593Z,94728.81
2022-11-20T09:06:21.474Z,94744.13
2022-11-20T09:08:49.321Z,94742.72
2022-11-20T09:11:17.188Z,94740.19
2022-11-20T09:13:45.083Z,94743.94
2022-11-20T09:16:13.109Z,94741.78
2022-11-20T09:18:42.428Z,94748.69
2022-11-20T09:21:13.099Z,94761.06
2022-11-20T09:23:41.564Z,94744.97
2022-11-20T09:26:12.953Z,94738.75
2022-11-20T09:28:40.940Z,94727.22
2022-11-20T09:31:10.159Z,94744.38
2022-11-20T09:33:38.282Z,94741.81
2022-11-20T09:36:07.950Z,94731.63
2022-11-20T09:38:36.175Z,94729.03
2022-11-20T09:41:08.772Z,94730.13
2022-11-20T09:44:00.340Z,94723.50
2022-11-20T09:46:38.588Z,94732.00
2022-11-20T09:49:29.023Z,94734.28
2022-11-20T09:52:03.351Z,94736.56
2022-11-20T09:54:36.492Z,94717.47
2022-11-20T09:57:11.824Z,94722.94
2022-11-20T09:59:42.494Z,94717.63
2022-11-20T10:02:20.664Z,94721.47
2022-11-20T10:04:55.443Z,94718.09
2022-11-20T10:07:32.892Z,94703.31
2022-11-20T10:10:01.710Z,94719.56
2022-11-20T10:12:42.670Z,94705.28
2022-11-20T10:15:23.446Z,94707.81
2022-11-20T10:18:07.657Z,94716.59
2022-11-20T10:20:45.895Z,94717.53
2022-11-20T10:23:30.586Z,94716.44
2022-11-20T10:26:04.359Z,94720.19
2022-11-20T10:28:52.619Z,94715.66
2022-11-20T10:31:32.843Z,94717.75
2022-11-20T10:34:12.456Z,94719.56
2022-11-20T10:36:46.275Z,94719.31
2022-11-20T10:39:25.286Z,94718.72
2022-11-20T10:41:54.735Z,94710.25
2022-11-20T10:44:41.968Z,94713.50
2022-11-20T10:47:15.720Z,94728.22
2022-11-20T10:49:48.723Z,94721.06
2022-11-20T10:52:27.212Z,94719.81
2022-11-20T10:55:07.117Z,94724.91
2022-11-20T10:57:54.936Z,94718.09
2022-11-20T11:00:23.214Z,94702.72
2022-11-20T11:02:52.581Z,94717.22
2022-11-20T11:05:35.719Z,94714.44
2022-11-20T11:08:06.926Z,94717.84
2022-11-20T11:10:44.939Z,94705.94
2022-11-20T11:13:22.112Z,94702.78
2022-11-20T11:15:50.296Z,94696.59
2022-11-20T11:18:29.401Z,94696.59
2022-11-20T11:20:58.794Z,94697.69
2022-11-20T11:23:38.718Z,94706.25
2022-11-20T11:26:20.048Z,94691.25
2022-11-20T11:28:56.036Z,94693.13
2022-11-20T11:31:27.958Z,94683.25
2022-11-20T11:34:07.408Z,94707.28
2022-11-20T11:36:37.077Z,94685.03
2022-11-20T11:39:06.427Z,94681.81
2022-11-20T11:41:36.976Z,94676.56
2022-11-20T11:44:35.616Z,94680.03
2022-11-20T11:47:05.988Z,94667.28
2022-11-20T11:49:34.110Z,94669.72
2022-11-20T11:52:07.336Z,94688.34
2022-11-20T11:54:40.685Z,94688.53
2022-11-20T11:57:18.057Z,94673.44
2022-11-20T11:59:56.751Z,94677.41
2022-11-20T12:02:37.215Z,94656.97
2022-11-20T12:05:16.843Z,94695.25
2022-11-20T12:07:47.967Z,94673.13
2022-11-20T12:10:24.928Z,94687.19
2022-11-20T12:13:00.988Z,94680.81
2022-11-20T12:15:32.772Z,94681.50
2022-11-20T12:18:00.983Z,94678.75
2022-11-20T12:20:35.170Z,94678.06
2022-11-20T12:23:09.444Z,94665.81
2022-11-20T12:25:39.002Z,94676.34
2022-11-20T12:28:40.240Z,94667.06
2022-11-20T12:31:24.902Z,94662.06
2022-11-20T12:34:05.712Z,94662.84
2022-11-20T12:36:44.298Z,94661.47
2022-11-20T12:39:34.583Z,94670.13
2022-11-20T12:42:34.116Z,94658.16
2022-11-20T12:45:31.130Z,94660.91
2022-11-20T12:48:17.175Z,94670.50
2022-11-20T12:53:51.539Z,94671.88
2022-11-20T12:56:30.849Z,94661.81
2022-11-20T12:59:15.519Z,94661.91
2022-11-20T13:01:51.400Z,94658.22
2022-11-20T13:04:36.153Z,94659.19
2022-11-20T13:07:05.963Z,94656.78
2022-11-20T13:09:36.023Z,94665.22
2022-11-20T13:12:10.975Z,94666.38
2022-11-20T13:14:44.874Z,94651.53
2022-11-20T13:17:19.131Z,94638.44
2022-11-20T13:19:51.996Z,94646.06
2022-11-20T13:22:27.585Z,94636.41
2022-11-20T13:24:55.523Z,94638.88
2022-11-20T13:27:24.824Z,94628.34
2022-11-20T13:30:05.462Z,94633.50
2022-11-20T13:32:34.976Z,94634.13
2022-11-20T13:35:05.326Z,94634.66
2022-11-20T13:37:34.870Z,94621.19
2022-11-20T13:40:24.881Z,94628.91
2022-11-20T13:43:09.454Z,94618.19
2022-11-20T13:45:37.255Z,94617.38
2022-11-20T13:48:21.874Z,94631.97
2022-11-20T13:51:15.612Z,94611.50
2022-11-20T13:54:24.954Z,94620.66
2022-11-20T13:57:05.959Z,94626.38
2022-11-20T13:59:54.805Z,94624.31
2022-11-20T14:02:25.113Z,94613.16
2022-11-20T14:04:56.705Z,94626.75
2022-11-20T14:07:29.331Z,94611.16
2022-11-20T14:09:59.117Z,94619.53
2022-11-20T14:12:31.687Z,94617.72
2022-11-20T14:15:02.958Z,94629.72
2022-11-20T14:17:34.435Z,94625.06
2022-11-20T14:20:07.956Z,94637.97
2022-11-20T14:22:36.599Z,94638.19
2022-11-20T14:25:08.792Z,94622.13
2022-11-20T14:27:39.267Z,94633.50
2022-11-20T14:30:14.554Z,94642.09
2022-11-20T14:32:44.211Z,94637.97
2022-11-20T14:35:20.492Z,94624.81
2022-11-20T14:37:51.643Z,94626.69
2022-11-20T14:40:29.229Z,94632.31
2022-11-20T14:42:57.643Z,94632.09
2022-11-20T14:45:26.367Z,94629.91
2022-11-20T14:47:58.053Z,94642.38
2022-11-20T14:50:29.342Z,94629.84
2022-11-20T14:52:59.314Z,94628.25
2022-11-20T14:55:28.761Z,94625.28
2022-11-20T14:57:58.111Z,94615.47
2022-11-20T15:00:26.825Z,94615.03
2022-11-20T15:02:54.879Z,94622.31
2022-11-20T15:05:25.437Z,94624.78
2022-11-20T15:08:08.482Z,94635.59
2022-11-20T15:10:37.955Z,94626.19
2022-11-20T15:13:13.554Z,94629.06
2022-11-20T15:15:49.957Z,94624.50
2022-11-20T15:18:20.324Z,94634.16
2022-11-20T15:20:48.499Z,94620.66
2022-11-20T15:23:19.877Z,94618.28
2022-11-20T15:25:48.800Z,94611.88
2022-11-20T15:28:20.315Z,94625.94
2022-11-20T15:30:49.295Z,94626.84
2022-11-20T15:33:17.808Z,94628.81
2022-11-20T15:35:45.917Z,94631.94
2022-11-20T15:38:15.999Z,94638.00
2022-11-20T15:40:45.469Z,94601.94
2022-11-20T15:43:14.065Z,94615.88
2022-11-20T15:45:44.859Z,94616.34
2022-11-20T15:48:15.870Z,94616.44
2022-11-20T15:50:55.605Z,94614.59
2022-11-20T15:53:23.671Z,94612.44
2022-11-20T15:55:52.902Z,94607.34
2022-11-20T15:58:23.331Z,94613.28
2022-11-20T16:00:51.115Z,94606.03
2022-11-20T16:03:19.193Z,94604.34
2022-11-20T16:05:47.552Z,94599.44
2022-11-20T16:08:15.752Z,94602.88
2022-11-20T16:10:44.024Z,94597.50
2022-11-20T16:13:34.478Z,94592.94
2022-11-20T16:16:06.567Z,94596.78
2022-11-20T16:18:35.205Z,94594.34
2022-11-20T16:21:03.282Z,94574.69
2022-11-20T16:23:31.292Z,94602.56
2022-11-20T16:25:59.398Z,94594.31
2022-11-20T16:28:29.252Z,94591.50
2022-11-20T16:30:57.133Z,94587.31
2022-11-20T16:33:24.953Z,94582.38
2022-11-20T16:35:52.762Z,94574.50
2022-11-20T16:38:20.605Z,94573.09
2022-11-20T16:40:48.358Z,94579.56
2022-11-20T16:43:16.179Z,94587.97
2022-11-20T16:45:46.387Z,94575.34
2022-11-20T16:48:16.034Z,94579.28
2022-11-20T16:50:49.295Z,94572.56
2022-11-20T16:53:17.271Z,94570.25
2022-11-20T16:55:45.027Z,94565.78
2022-11-20T16:58:12.910Z,94556.63
2022-11-20T17:00:44.500Z,94563.13
2022-11-20T17:03:17.875Z,94564.97
2022-11-20T17:05:45.928Z,94535.34
2022-11-20T17:08:13.850Z,94559.81
2022-11-20T17:10:42.551Z,94555.41
2022-11-20T17:13:10.495Z,94568.34
2022-11-20T17:15:38.471Z,94539.06
2022-11-20T17:18:06.380Z,94556.81
2022-11-20T17:20:35.591Z,94549.63
2022-11-20T17:23:03.437Z,94546.66
2022-11-20T17:25:33.846Z,94552.66
2022-11-20T17:28:01.699Z,94547.13
2022-11-20T17:30:30.820Z,94546.53
2022-11-20T17:32:58.607Z,94542.53
2022-11-20T17:35:26.500Z,94524.84
2022-11-20T17:37:55.729Z,94545.75
2022-11-20T17:40:27.347Z,94546.41
2022-11-20T17:42:55.918Z,94542.78
2022-11-20T17:45:23.859Z,94537.25
2022-11-20T17:47:51.750Z,94540.28
2022-11-20T17:50:19.736Z,94542.53
2022-11-20T17:52:47.548Z,94545.19
2022-11-20T17:55:16.842Z,94538.84
2022-11-20T17:57:52.757Z,94534.88
2022-11-20T18:00:21.062Z,94536.53
2022-11-20T18:02:49.182Z,94541.91
2022-11-20T18:05:17.194Z,94536.22
2022-11-20T18:07:45.076Z,94536.38
2022-11-20T18:10:13.216Z,94535.75
2022-11-20T18:12:45.028Z,94537.78
2022-11-20T18:15:12.869Z,94525.44
2022-11-20T18:17:40.936Z,94544.56
2022-11-20T18:22:58.655Z,94517.56
2022-11-20T18:25:26.573Z,94523.72
2022-11-20T18:27:56.424Z,94511.50
2022-11-20T18:30:24.474Z,94510.53
2022-11-20T18:32:52.442Z,94514.97
2022-11-20T18:35:20.240Z,94514.03
2022-11-20T18:37:48.534Z,94515.94
2022-11-20T18:40:16.510Z,94506.94
2022-11-20T18:43:02.001Z,94514.25
2022-11-20T18:45:31.682Z,94509.34
2022-11-20T18:48:01.715Z,94497.78
2022-11-20T18:50:29.543Z,94492.09
2022-11-20T18:52:57.496Z,94499.72
2022-11-20T18:55:26.013Z,94484.03
2022-11-20T18:57:55.077Z,94472.66
2022-11-20T19:00:26.938Z,94482.91
2022-11-20T19:02:59.877Z,94478.66
2022-11-20T19:05:27.848Z,94481.19
2022-11-20T19:07:55.719Z,94476.28
2022-11-20T19:10:24.399Z,94480.63
2022-11-20T19:12:52.330Z,94472.88
2022-11-20T19:15:20.377Z,94468.00
2022-11-20T19:17:48.304Z,94462.16
2022-11-20T19:20:19.001Z,94465.00
2022-11-20T19:22:51.226Z,94469.72
2022-11-20T19:25:19.078Z,94463.72
2022-11-20T19:27:46.994Z,94469.22
2022-11-20T19:30:15.415Z,94466.38
2022-11-20T19:32:43.279Z,94461.31
2022-11-20T19:35:11.143Z,94459.38
2022-11-20T19:37:40.436Z,94441.63
2022-11-20T19:40:09.201Z,94454.25
2022-11-20T19:42:37.176Z,94457.09
2022-11-20T19:45:05.432Z,94459.66
2022-11-20T19:48:01.014Z,94460.47
2022-11-20T19:50:21.235Z,94454.94
2022-11-20T19:52:54.426Z,94455.88
2022-11-20T19:55:27.074Z,94454.31
2022-11-20T19:57:55.090Z,94444.78
2022-11-20T20:00:28.333Z,94448.97
2022-11-20T20:03:00.214Z,94450.22
2022-11-20T20:05:28.042Z,94442.19
2022-11-20T20:07:57.277Z,94440.28
2022-11-20T20:10:25.106Z,94445.63
2022-11-20T20:12:52.897Z,94440.72
2022-11-20T20:15:20.798Z,94438.66
2022-11-20T20:17:48.615Z,94432.78
2022-11-20T20:20:18.998Z,94424.56
2022-11-20T20:22:47.208Z,94430.88
2022-11-20T20:25:16.571Z,94426.41
2022-11-20T20:27:44.522Z,94417.25
2022-11-20T20:30:13.305Z,94431.69
2022-11-20T20:32:41.219Z,94419.38
2022-11-20T20:35:09.917Z,94427.59
2022-11-20T20:37:37.771Z,94425.75
2022-11-20T20:40:09.733Z,94423.03
2022-11-20T20:42:41.405Z,94425.66
2022-11-20T20:45:11.153Z,94421.09
2022-11-20T20:47:40.329Z,94414.81
2022-11-20T20:50:11.171Z,94421.81
2022-11-20T20:52:41.825Z,94418.94
2022-11-20T20:55:10.466Z,94425.22
2022-11-20T20:57:38.372Z,94415.91
2022-11-20T21:00:32.453Z,94423.72
2022-11-20T21:03:00.234Z,94423.25
2022-11-20T21:05:28.086Z,94418.69
2022-11-20T21:08:13.330Z,94411.06
2022-11-20T21:10:41.132Z,94407.75
2022-11-20T21:13:08.940Z,94409.84
2022-11-20T21:15:41.305Z,94412.38
2022-11-20T21:18:09.273Z,94398.00
2022-11-20T21:20:57.517Z,94400.03
2022-11-20T21:23:25.456Z,94399.69
2022-11-20T21:25:53.446Z,94398.28
2022-11-20T21:28:21.273Z,94407.75
2022-11-20T21:30:50.445Z,94420.47
2022-11-20T21:33:18.298Z,94429.75
2022-11-20T21:35:46.133Z,94428.25
2022-11-20T21:38:13.966Z,94445.09
2022-11-20T21:40:41.714Z,94457.13
2022-11-20T21:43:09.513Z,94477.56
2022-11-20T21:45:37.351Z,94473.16
2022-11-20T21:48:07.383Z,94462.66
2022-11-20T21:50:35.800Z,94466.53
2022-11-20T21:53:03.629Z,94456.75
2022-11-20T21:55:31.427Z,94456.13
2022-11-20T21:57:59.331Z,94446.22
2022-11-20T22:00:27.106Z,94436.06
2022-11-20T22:02:54.993Z,94412.56
2022-11-20T22:05:25.158Z,94419.41
2022-11-20T22:07:52.959Z,94412.22
2022-11-20T22:10:20.843Z,94410.75
2022-11-20T22:12:48.682Z,94399.22
2022-11-20T22:15:28.021Z,94406.53
2022-11-20T22:18:15.443Z,94400.97
2022-11-20T22:20:44.819Z,94395.25
2022-11-20T22:23:12.669Z,94399.72
2022-11-20T22:25:40.490Z,94397.34
2022-11-20T22:28:08.310Z,94412.16
2022-11-20T22:30:36.105Z,94408.81
2022-11-20T22:33:06.667Z,94404.44
2022-11-20T22:35:36.768Z,94414.06
2022-11-20T22:38:07.631Z,94416.44
2022-11-20T22:40:35.385Z,94411.53
2022-11-20T22:43:03.136Z,94422.34
2022-11-20T22:45:33.323Z,94423.81
2022-11-20T22:48:01.102Z,94399.88
2022-11-20T22:50:28.894Z,94405.78
2022-11-20T22:52:56.646Z,94409.13
2022-11-20T22:55:25.814Z,94400.91
2022-11-20T22:57:53.648Z,94416.03
2022-11-20T23:00:21.502Z,94409.81
2022-11-20T23:02:49.315Z,94407.28
2022-11-20T23:05:17.070Z,94416.03
2022-11-20T23:07:45.103Z,94407.34
2022-11-20T23:10:13.047Z,94403.69
2022-11-20T23:12:42.197Z,94411.28
2022-11-20T23:15:11.117Z,94412.31
2022-11-20T23:17:38.891Z,94408.81
2022-11-20T23:20:08.042Z,94420.69
2022-11-20T23:22:35.937Z,94418.00
2022-11-20T23:25:03.887Z,94406.78
2022-11-20T23:27:31.729Z,94397.88
2022-11-20T23:30:00.916Z,94399.34
2022-11-20T23:32:28.733Z,94397.09
2022-11-20T23:34:56.597Z,94393.06
2022-11-20T23:37:24.381Z,94399.19
2022-11-20T23:39:52.174Z,94403.63
2022-11-20T23:42:20.062Z,94411.06
2022-11-20T23:44:48.931Z,94412.63
2022-11-20T23:47:18.193Z,94415.97
2022-11-20T23:49:46.033Z,94403.41
2022-11-20T23:52:13.894Z,94408.69
2022-11-20T23:54:41.629Z,94417.25
2022-11-20T23:57:09.402Z,94422.94
2022-11-20T23:59:37.240Z,94429.16
